createdAt,value
2023-03-16T00:01:14.399Z,54.70
2023-03-16T00:04:12.831Z,54.70
2023-03-16T00:06:40.645Z,54.60
2023-03-16T00:09:12.049Z,54.70
2023-03-16T00:11:44.882Z,54.70
2023-03-16T00:16:57.671Z,54.70
2023-03-16T00:19:35.049Z,54.80
2023-03-16T00:22:06.383Z,54.80
2023-03-16T00:24:38.296Z,55.40
2023-03-16T00:27:08.741Z,54.80
2023-03-16T00:29:37.960Z,54.80
2023-03-16T00:32:07.842Z,54.90
2023-03-16T00:34:40.559Z,54.80
2023-03-16T00:37:12.744Z,54.80
2023-03-16T00:39:43.078Z,54.90
2023-03-16T00:42:18.165Z,54.90
2023-03-16T00:44:46.943Z,54.90
2023-03-16T00:47:19.245Z,54.90
2023-03-16T00:49:50.218Z,54.90
2023-03-16T00:52:19.644Z,54.90
2023-03-16T00:54:54.297Z,55.00
2023-03-16T00:57:25.650Z,55.00
2023-03-16T00:59:57.522Z,54.90
2023-03-16T01:02:28.512Z,55.00
2023-03-16T01:05:00.904Z,54.90
2023-03-16T01:07:31.809Z,54.90
2023-03-16T01:10:03.098Z,54.90
2023-03-16T01:12:33.517Z,55.00
2023-03-16T01:15:04.597Z,54.90
2023-03-16T01:17:37.648Z,54.90
2023-03-16T01:20:20.655Z,54.80
2023-03-16T01:22:52.617Z,54.90
2023-03-16T01:25:22.176Z,54.80
2023-03-16T01:27:52.336Z,54.80
2023-03-16T01:30:24.281Z,54.80
2023-03-16T01:32:56.261Z,54.70
2023-03-16T01:35:25.384Z,54.70
2023-03-16T01:37:55.199Z,54.60
2023-03-16T01:40:25.561Z,54.70
2023-03-16T01:43:02.005Z,54.80
2023-03-16T01:46:09.795Z,54.70
2023-03-16T01:49:01.211Z,54.60
2023-03-16T01:52:04.684Z,54.70
2023-03-16T01:54:56.101Z,54.60
2023-03-16T01:57:45.043Z,54.60
2023-03-16T02:00:32.421Z,54.60
2023-03-16T02:03:07.816Z,55.20
2023-03-16T02:05:45.753Z,54.60
2023-03-16T02:08:14.408Z,54.50
2023-03-16T02:10:55.639Z,54.50
2023-03-16T02:13:34.115Z,54.50
2023-03-16T02:16:07.520Z,54.60
2023-03-16T02:18:37.442Z,54.60
2023-03-16T02:21:48.164Z,54.60
2023-03-16T02:24:20.876Z,54.40
2023-03-16T02:27:16.155Z,54.60
2023-03-16T02:30:19.461Z,54.50
2023-03-16T02:32:53.968Z,54.50
2023-03-16T02:35:22.211Z,54.60
2023-03-16T02:37:52.890Z,54.50
2023-03-16T02:40:29.541Z,54.50
2023-03-16T02:43:17.090Z,54.50
2023-03-16T02:49:00.841Z,54.50
2023-03-16T02:51:37.480Z,54.50
2023-03-16T02:54:08.719Z,54.50
2023-03-16T02:56:41.783Z,54.50
2023-03-16T02:59:14.959Z,54.50
2023-03-16T03:01:45.447Z,54.50
2023-03-16T03:04:13.634Z,54.50
2023-03-16T03:06:41.737Z,54.60
2023-03-16T03:09:12.840Z,54.50
2023-03-16T03:11:44.361Z,54.50
2023-03-16T03:14:17.634Z,54.50
2023-03-16T03:16:47.078Z,54.50
2023-03-16T03:19:17.734Z,54.50
2023-03-16T03:21:48.504Z,54.60
2023-03-16T03:24:16.614Z,54.60
2023-03-16T03:26:48.137Z,54.60
2023-03-16T03:29:18.377Z,54.60
2023-03-16T03:31:47.467Z,54.60
2023-03-16T03:34:18.497Z,54.60
2023-03-16T03:36:54.520Z,54.70
2023-03-16T03:39:24.600Z,54.70
2023-03-16T03:41:54.667Z,54.80
2023-03-16T03:44:27.801Z,54.70
2023-03-16T03:46:59.300Z,54.80
2023-03-16T03:49:29.316Z,54.70
2023-03-16T03:52:00.699Z,54.70
2023-03-16T03:54:33.760Z,54.70
2023-03-16T03:57:06.031Z,54.70
2023-03-16T03:59:45.158Z,54.70
2023-03-16T04:02:15.866Z,54.70
2023-03-16T04:04:44.204Z,54.80
2023-03-16T04:07:16.460Z,54.70
2023-03-16T04:09:47.552Z,54.60
2023-03-16T04:12:18.821Z,54.70
2023-03-16T04:14:50.909Z,54.70
2023-03-16T04:17:22.039Z,54.70
2023-03-16T04:19:54.659Z,54.60
2023-03-16T04:22:30.873Z,54.70
2023-03-16T04:25:01.932Z,54.70
2023-03-16T04:27:38.402Z,54.70
2023-03-16T04:30:24.190Z,54.70
2023-03-16T04:32:55.604Z,54.70
2023-03-16T04:35:24.968Z,54.70
2023-03-16T04:37:54.340Z,54.70
2023-03-16T04:40:24.649Z,54.80
2023-03-16T04:42:55.018Z,54.70
2023-03-16T04:45:23.435Z,54.60
2023-03-16T04:47:53.822Z,54.70
2023-03-16T04:50:25.207Z,54.70
2023-03-16T04:52:55.306Z,54.60
2023-03-16T04:55:23.503Z,54.70
2023-03-16T04:58:01.036Z,54.60
2023-03-16T05:00:34.527Z,54.70
2023-03-16T05:03:07.559Z,54.60
2023-03-16T05:05:38.023Z,54.60
2023-03-16T05:08:07.000Z,54.70
2023-03-16T05:10:38.683Z,54.60
2023-03-16T05:13:07.323Z,54.60
2023-03-16T05:15:38.664Z,54.60
2023-03-16T05:18:07.513Z,54.60
2023-03-16T05:20:39.076Z,54.70
2023-03-16T05:25:53.990Z,54.60
2023-03-16T05:28:28.657Z,54.60
2023-03-16T05:30:58.603Z,54.60
2023-03-16T05:33:30.750Z,54.60
2023-03-16T05:36:03.474Z,54.60
2023-03-16T05:38:35.068Z,54.60
2023-03-16T05:41:12.288Z,54.60
2023-03-16T05:43:40.731Z,54.60
2023-03-16T05:46:12.119Z,54.60
2023-03-16T05:48:45.766Z,55.20
2023-03-16T05:51:15.328Z,54.60
2023-03-16T05:53:44.061Z,54.50
2023-03-16T05:56:14.742Z,54.50
2023-03-16T05:58:45.416Z,54.50
2023-03-16T06:01:20.214Z,54.50
2023-03-16T06:03:49.305Z,54.40
2023-03-16T06:06:20.521Z,54.40
2023-03-16T06:08:51.461Z,54.40
2023-03-16T06:11:22.893Z,54.40
2023-03-16T06:13:56.025Z,54.50
2023-03-16T06:16:26.444Z,54.40
2023-03-16T06:18:57.376Z,54.40
2023-03-16T06:21:28.234Z,54.60
2023-03-16T06:24:00.753Z,54.80
2023-03-16T06:26:31.743Z,54.80
2023-03-16T06:29:03.236Z,54.70
2023-03-16T06:31:35.288Z,54.80
2023-03-16T06:34:07.955Z,54.70
2023-03-16T06:36:36.839Z,54.70
2023-03-16T06:39:05.225Z,54.60
2023-03-16T06:41:40.459Z,54.40
2023-03-16T06:46:52.588Z,54.20
2023-03-16T06:49:21.732Z,54.10
2023-03-16T06:51:54.379Z,54.10
2023-03-16T06:54:25.153Z,54.10
2023-03-16T06:56:55.518Z,54.00
2023-03-16T06:59:25.080Z,54.10
2023-03-16T07:01:58.356Z,54.10
2023-03-16T07:04:34.129Z,54.40
2023-03-16T07:07:05.175Z,54.40
2023-03-16T07:09:36.744Z,54.20
2023-03-16T07:12:10.558Z,54.20
2023-03-16T07:14:41.972Z,54.70
2023-03-16T07:17:10.168Z,54.80
2023-03-16T07:19:39.435Z,54.80
2023-03-16T07:22:10.651Z,55.60
2023-03-16T07:24:40.882Z,57.00
2023-03-16T07:27:12.384Z,56.80
2023-03-16T07:29:42.595Z,56.10
2023-03-16T07:32:11.927Z,55.60
2023-03-16T07:34:44.227Z,55.20
2023-03-16T07:37:14.434Z,54.80
2023-03-16T07:39:44.723Z,54.50
2023-03-16T07:42:17.296Z,54.40
2023-03-16T07:44:50.595Z,54.20
2023-03-16T07:50:04.036Z,53.80
2023-03-16T07:52:32.403Z,53.80
2023-03-16T07:55:02.768Z,53.70
2023-03-16T07:57:32.506Z,53.60
2023-03-16T08:00:03.330Z,53.60
2023-03-16T08:02:33.857Z,53.70
2023-03-16T08:05:07.105Z,53.60
2023-03-16T08:07:38.021Z,53.50
2023-03-16T08:12:54.985Z,53.50
2023-03-16T08:15:38.008Z,53.50
2023-03-16T08:18:12.583Z,53.50
2023-03-16T08:20:44.144Z,53.40
2023-03-16T08:23:16.409Z,53.40
2023-03-16T08:25:47.155Z,53.40
2023-03-16T08:28:18.474Z,53.20
2023-03-16T08:30:54.501Z,53.30
2023-03-16T08:33:26.016Z,53.10
2023-03-16T08:38:40.000Z,53.10
2023-03-16T08:41:13.118Z,53.10
2023-03-16T08:43:43.161Z,53.10
2023-03-16T08:46:12.205Z,53.10
2023-03-16T08:48:47.210Z,52.90
2023-03-16T08:51:22.551Z,53.00
2023-03-16T08:53:51.548Z,53.10
2023-03-16T08:56:25.773Z,53.10
2023-03-16T08:58:57.212Z,53.00
2023-03-16T09:01:28.317Z,53.10
2023-03-16T09:03:58.802Z,52.90
2023-03-16T09:06:30.382Z,52.90
2023-03-16T09:09:05.932Z,52.80
2023-03-16T09:11:38.707Z,52.80
2023-03-16T09:16:58.645Z,52.70
2023-03-16T09:19:37.677Z,52.80
2023-03-16T09:22:22.313Z,52.70
2023-03-16T09:24:52.967Z,53.10
2023-03-16T09:27:21.315Z,53.60
2023-03-16T09:29:53.062Z,54.00
2023-03-16T09:32:25.847Z,53.90
2023-03-16T09:35:06.553Z,54.00
2023-03-16T09:37:45.498Z,54.20
2023-03-16T09:40:30.101Z,54.40
2023-03-16T09:43:30.326Z,54.70
2023-03-16T09:46:25.274Z,55.10
2023-03-16T09:49:00.019Z,55.20
2023-03-16T09:52:18.626Z,54.80
2023-03-16T09:58:18.212Z,55.20
2023-03-16T10:01:16.858Z,55.30
2023-03-16T10:04:10.500Z,55.50
2023-03-16T10:06:57.401Z,55.50
2023-03-16T10:09:40.700Z,55.50
2023-03-16T10:12:15.877Z,55.70
2023-03-16T10:15:18.344Z,55.50
2023-03-16T10:18:17.331Z,55.40
2023-03-16T10:20:49.696Z,55.40
2023-03-16T10:26:19.211Z,55.50
2023-03-16T10:28:48.251Z,55.70
2023-03-16T10:31:19.689Z,55.80
2023-03-16T10:34:06.366Z,56.00
2023-03-16T10:36:41.888Z,56.40
2023-03-16T10:39:13.604Z,55.90
2023-03-16T10:41:49.005Z,56.10
2023-03-16T10:44:37.795Z,55.90
2023-03-16T10:47:31.487Z,56.20
2023-03-16T10:50:19.876Z,56.00
2023-03-16T10:52:59.408Z,56.20
2023-03-16T10:55:42.581Z,56.30
2023-03-16T10:58:25.665Z,56.40
2023-03-16T11:00:55.690Z,56.40
2023-03-16T11:03:52.645Z,56.10
2023-03-16T11:09:21.931Z,55.10
2023-03-16T11:11:52.706Z,55.70
2023-03-16T11:14:26.139Z,55.60
2023-03-16T11:17:20.319Z,56.00
2023-03-16T11:20:00.749Z,56.00
2023-03-16T11:22:32.516Z,55.40
2023-03-16T11:25:32.902Z,55.30
2023-03-16T11:28:41.044Z,55.40
2023-03-16T11:31:28.986Z,55.90
2023-03-16T11:33:57.624Z,56.00
2023-03-16T11:37:09.783Z,55.90
2023-03-16T11:39:56.232Z,55.90
2023-03-16T11:42:55.669Z,55.80
2023-03-16T11:46:27.085Z,56.50
2023-03-16T11:49:33.086Z,55.80
2023-03-16T11:52:24.270Z,55.70
2023-03-16T11:55:23.650Z,55.20
2023-03-16T11:58:35.917Z,55.10
2023-03-16T12:01:57.923Z,56.10
2023-03-16T12:05:01.647Z,55.90
2023-03-16T12:08:00.725Z,55.10
2023-03-16T12:10:51.823Z,55.50
2023-03-16T12:14:00.105Z,55.40
2023-03-16T12:16:59.862Z,55.90
2023-03-16T12:19:59.457Z,55.10
2023-03-16T12:22:45.058Z,55.40
2023-03-16T12:28:23.219Z,55.50
2023-03-16T12:31:15.578Z,55.10
2023-03-16T12:34:21.478Z,55.50
2023-03-16T12:37:39.100Z,55.50
2023-03-16T12:40:37.879Z,55.60
2023-03-16T12:46:16.597Z,55.60
2023-03-16T12:48:54.676Z,55.80
2023-03-16T12:51:34.211Z,56.00
2023-03-16T12:54:06.053Z,56.20
2023-03-16T12:56:48.601Z,55.90
2023-03-16T12:59:26.378Z,56.00
2023-03-16T13:02:03.389Z,55.50
2023-03-16T13:04:42.071Z,55.50
2023-03-16T13:07:18.299Z,56.00
2023-03-16T13:10:01.504Z,56.40
2023-03-16T13:12:41.741Z,55.60
2023-03-16T13:15:29.586Z,56.30
2023-03-16T13:18:12.619Z,56.10
2023-03-16T13:21:02.279Z,56.00
2023-03-16T13:24:00.480Z,56.00
2023-03-16T13:26:46.862Z,56.30
2023-03-16T13:29:28.587Z,56.20
2023-03-16T13:32:03.111Z,56.20
2023-03-16T13:34:37.498Z,56.10
2023-03-16T13:37:22.125Z,56.20
2023-03-16T13:40:04.039Z,56.10
2023-03-16T13:42:33.895Z,56.40
2023-03-16T13:45:15.504Z,56.10
2023-03-16T13:47:51.666Z,56.40
2023-03-16T13:50:24.672Z,55.90
2023-03-16T13:53:16.666Z,56.10
2023-03-16T13:55:48.423Z,56.30
2023-03-16T13:58:42.604Z,56.30
2023-03-16T14:01:39.462Z,56.20
2023-03-16T14:04:17.888Z,56.10
2023-03-16T14:06:58.740Z,56.30
2023-03-16T14:09:37.453Z,56.20
2023-03-16T14:12:08.407Z,56.10
2023-03-16T14:14:52.450Z,56.10
2023-03-16T14:17:25.265Z,56.00
2023-03-16T14:20:01.861Z,56.00
2023-03-16T14:22:40.461Z,56.10
2023-03-16T14:25:20.453Z,56.00
2023-03-16T14:28:01.711Z,56.20
2023-03-16T14:30:54.303Z,56.30
2023-03-16T14:33:42.599Z,56.50
2023-03-16T14:36:19.722Z,56.60
2023-03-16T14:38:48.688Z,56.30
2023-03-16T14:41:33.716Z,56.30
2023-03-16T14:44:19.758Z,57.00
2023-03-16T14:46:59.521Z,56.60
2023-03-16T14:49:38.509Z,56.70
2023-03-16T14:52:36.283Z,57.50
2023-03-16T14:55:26.222Z,58.20
2023-03-16T14:57:57.649Z,58.80
2023-03-16T15:00:30.274Z,59.20
2023-03-16T15:03:14.342Z,59.40
2023-03-16T15:05:53.027Z,59.50
2023-03-16T15:08:37.461Z,59.60
2023-03-16T15:11:13.141Z,60.40
2023-03-16T15:13:42.952Z,60.00
2023-03-16T15:16:12.143Z,60.10
2023-03-16T15:18:44.157Z,60.30
2023-03-16T15:24:07.127Z,60.70
2023-03-16T15:26:39.253Z,60.70
2023-03-16T15:29:06.775Z,60.60
2023-03-16T15:31:39.609Z,60.70
2023-03-16T15:34:09.065Z,60.70
2023-03-16T15:36:38.713Z,60.70
2023-03-16T15:39:11.378Z,59.90
2023-03-16T15:41:47.690Z,60.50
2023-03-16T15:44:20.924Z,61.90
2023-03-16T15:46:53.933Z,62.60
2023-03-16T15:49:23.637Z,61.30
2023-03-16T15:51:55.610Z,60.90
2023-03-16T15:54:26.194Z,60.20
2023-03-16T15:56:59.195Z,59.60
2023-03-16T15:59:34.176Z,59.30
2023-03-16T16:02:21.675Z,59.10
2023-03-16T16:04:53.387Z,59.10
2023-03-16T16:07:24.871Z,58.80
2023-03-16T16:09:53.908Z,58.70
2023-03-16T16:12:34.670Z,58.50
2023-03-16T16:18:07.406Z,58.20
2023-03-16T16:20:38.124Z,58.30
2023-03-16T16:23:11.341Z,58.10
2023-03-16T16:25:47.386Z,58.00
2023-03-16T16:28:21.010Z,57.90
2023-03-16T16:30:53.990Z,57.80
2023-03-16T16:33:38.497Z,57.70
2023-03-16T16:38:59.253Z,57.70
2023-03-16T16:41:40.689Z,58.20
2023-03-16T16:44:28.680Z,58.70
2023-03-16T16:46:57.417Z,58.60
2023-03-16T16:49:34.037Z,58.50
2023-03-16T16:52:02.374Z,58.80
2023-03-16T16:54:36.153Z,58.70
2023-03-16T16:57:03.408Z,58.70
2023-03-16T16:59:34.769Z,58.90
2023-03-16T17:02:24.262Z,58.50
2023-03-16T17:04:55.352Z,58.00
2023-03-16T17:07:26.684Z,58.40
2023-03-16T17:10:00.514Z,58.60
2023-03-16T17:12:32.796Z,58.40
2023-03-16T17:15:02.817Z,58.50
2023-03-16T17:17:37.945Z,58.40
2023-03-16T17:20:16.705Z,58.50
2023-03-16T17:22:47.556Z,58.50
2023-03-16T17:25:18.848Z,58.50
2023-03-16T17:27:48.528Z,58.60
2023-03-16T17:30:27.636Z,58.60
2023-03-16T17:33:03.671Z,58.70
2023-03-16T17:35:35.253Z,58.70
2023-03-16T17:38:28.717Z,58.60
2023-03-16T17:41:02.370Z,58.80
2023-03-16T17:43:32.885Z,58.70
2023-03-16T17:46:04.664Z,58.80
2023-03-16T17:48:37.773Z,58.80
2023-03-16T17:51:08.866Z,58.80
2023-03-16T17:53:37.984Z,58.90
2023-03-16T17:56:25.419Z,59.00
2023-03-16T17:59:02.951Z,59.10
2023-03-16T18:01:37.926Z,59.00
2023-03-16T18:04:20.125Z,59.10
2023-03-16T18:06:49.731Z,59.00
2023-03-16T18:09:23.058Z,59.20
2023-03-16T18:11:54.876Z,59.00
2023-03-16T18:14:37.288Z,58.90
2023-03-16T18:17:15.482Z,59.10
2023-03-16T18:19:58.254Z,58.90
2023-03-16T18:22:28.139Z,58.90
2023-03-16T18:24:59.511Z,58.90
2023-03-16T18:27:30.224Z,59.50
2023-03-16T18:30:00.653Z,58.80
2023-03-16T18:32:31.493Z,58.80
2023-03-16T18:35:02.875Z,58.90
2023-03-16T18:37:35.276Z,58.90
2023-03-16T18:40:05.765Z,58.80
2023-03-16T18:42:36.942Z,58.80
2023-03-16T18:45:06.566Z,58.80
2023-03-16T18:47:35.267Z,58.80
2023-03-16T18:50:07.057Z,58.70
2023-03-16T18:52:42.628Z,58.70
2023-03-16T18:55:18.401Z,58.70
2023-03-16T18:57:54.389Z,58.70
2023-03-16T19:00:29.975Z,58.70
2023-03-16T19:03:11.387Z,58.80
2023-03-16T19:05:44.003Z,58.60
2023-03-16T19:08:25.029Z,58.60
2023-03-16T19:11:01.741Z,58.50
2023-03-16T19:13:30.910Z,58.40
2023-03-16T19:16:06.281Z,58.50
2023-03-16T19:18:49.936Z,58.40
2023-03-16T19:21:23.071Z,58.30
2023-03-16T19:24:03.723Z,58.20
2023-03-16T19:26:33.510Z,58.20
2023-03-16T19:29:06.526Z,58.20
2023-03-16T19:31:35.386Z,58.20
2023-03-16T19:34:24.574Z,58.20
2023-03-16T19:36:55.536Z,58.10
2023-03-16T19:39:23.862Z,58.10
2023-03-16T19:42:01.407Z,58.00
2023-03-16T19:44:32.046Z,57.90
2023-03-16T19:47:16.615Z,57.90
2023-03-16T19:49:52.531Z,57.80
2023-03-16T19:52:23.918Z,57.80
2023-03-16T19:54:53.549Z,57.70
2023-03-16T19:57:24.361Z,57.60
2023-03-16T19:59:57.468Z,57.50
2023-03-16T20:02:38.317Z,57.60
2023-03-16T20:05:13.414Z,57.70
2023-03-16T20:07:42.827Z,58.10
2023-03-16T20:10:26.782Z,57.40
2023-03-16T20:13:02.014Z,57.50
2023-03-16T20:15:35.643Z,57.40
2023-03-16T20:18:09.046Z,57.30
2023-03-16T20:20:41.483Z,57.40
2023-03-16T20:23:36.180Z,57.30
2023-03-16T20:26:06.014Z,57.40
2023-03-16T20:28:41.587Z,57.20
2023-03-16T20:31:33.951Z,57.20
2023-03-16T20:34:05.804Z,57.10
2023-03-16T20:36:37.166Z,57.20
2023-03-16T20:39:05.748Z,57.10
2023-03-16T20:41:39.228Z,56.90
2023-03-16T20:44:08.615Z,56.80
2023-03-16T20:46:49.562Z,56.70
2023-03-16T20:49:34.354Z,56.70
2023-03-16T20:52:13.612Z,56.70
2023-03-16T20:54:44.939Z,56.60
2023-03-16T20:57:32.688Z,56.40
2023-03-16T21:00:03.823Z,56.40
2023-03-16T21:02:37.820Z,56.20
2023-03-16T21:05:10.364Z,56.00
2023-03-16T21:07:39.515Z,56.10
2023-03-16T21:10:09.370Z,56.10
2023-03-16T21:12:42.486Z,56.00
2023-03-16T21:15:33.644Z,55.90
2023-03-16T21:18:05.459Z,56.10
2023-03-16T21:20:40.186Z,56.00
2023-03-16T21:23:29.324Z,55.80
2023-03-16T21:26:00.878Z,55.90
2023-03-16T21:28:32.700Z,55.80
2023-03-16T21:31:05.539Z,55.90
2023-03-16T21:33:41.995Z,55.90
2023-03-16T21:36:27.379Z,55.90
2023-03-16T21:39:03.427Z,55.90
2023-03-16T21:41:34.365Z,56.10
2023-03-16T21:44:06.283Z,56.00
2023-03-16T21:46:37.333Z,56.00
2023-03-16T21:49:13.202Z,55.90
2023-03-16T21:51:43.013Z,56.00
2023-03-16T21:54:15.507Z,55.90
2023-03-16T21:56:44.057Z,55.90
2023-03-16T21:59:14.235Z,55.90
2023-03-16T22:02:00.876Z,55.90
2023-03-16T22:04:36.515Z,56.10
2023-03-16T22:07:15.656Z,56.50
2023-03-16T22:09:46.084Z,56.90
2023-03-16T22:12:18.994Z,56.90
2023-03-16T22:14:49.421Z,57.10
2023-03-16T22:17:28.623Z,57.10
2023-03-16T22:20:01.235Z,56.90
2023-03-16T22:22:35.123Z,56.80
2023-03-16T22:25:05.035Z,56.60
2023-03-16T22:27:35.772Z,56.10
2023-03-16T22:30:07.468Z,55.70
2023-03-16T22:32:39.129Z,55.50
2023-03-16T22:35:27.625Z,55.50
2023-03-16T22:38:09.328Z,55.30
2023-03-16T22:40:42.270Z,55.90
2023-03-16T22:43:17.611Z,54.70
2023-03-16T22:45:48.443Z,55.00
2023-03-16T22:48:22.390Z,54.90
2023-03-16T22:50:52.012Z,55.10
2023-03-16T22:53:39.224Z,55.10
2023-03-16T22:56:10.161Z,55.30
2023-03-16T22:58:43.626Z,55.20
2023-03-16T23:04:23.320Z,55.40
2023-03-16T23:07:00.533Z,55.40
2023-03-16T23:09:31.593Z,55.40
2023-03-16T23:12:05.597Z,55.40
2023-03-16T23:14:39.627Z,55.50
2023-03-16T23:17:19.012Z,55.40
2023-03-16T23:19:50.293Z,55.30
2023-03-16T23:22:20.822Z,55.30
2023-03-16T23:24:52.211Z,55.40
2023-03-16T23:27:22.617Z,55.40
2023-03-16T23:29:51.936Z,55.40
2023-03-16T23:32:21.732Z,55.50
2023-03-16T23:34:52.677Z,55.30
2023-03-16T23:37:24.379Z,55.30
2023-03-16T23:39:54.692Z,55.50
2023-03-16T23:42:27.420Z,55.40
2023-03-16T23:44:56.634Z,55.50
2023-03-16T23:47:25.795Z,55.50
2023-03-16T23:49:55.142Z,56.10
2023-03-16T23:52:23.120Z,55.50
2023-03-16T23:54:53.706Z,55.50
2023-03-16T23:57:24.674Z,55.50
2023-03-16T23:59:54.000Z,55.70
